createdAt,value
2023-04-02T00:00:05.283Z,30.72
2023-04-02T00:02:48.341Z,30.64
2023-04-02T00:05:20.870Z,31.05
2023-04-02T00:07:50.107Z,31.25
2023-04-02T00:10:38.074Z,31.09
2023-04-02T00:13:10.506Z,31.49
2023-04-02T00:15:38.722Z,31.05
2023-04-02T00:18:06.618Z,31.63
2023-04-02T00:20:40.761Z,31.48
2023-04-02T00:23:10.310Z,31.61
2023-04-02T00:25:43.009Z,32.11
2023-04-02T00:28:15.053Z,31.88
2023-04-02T00:31:10.553Z,31.90
2023-04-02T00:33:37.952Z,32.03
2023-04-02T00:36:08.985Z,32.67
2023-04-02T00:38:35.874Z,32.84
2023-04-02T00:41:05.026Z,32.79
2023-04-02T00:43:36.363Z,32.60
2023-04-02T00:46:16.537Z,32.93
2023-04-02T00:48:56.564Z,32.18
2023-04-02T00:51:29.780Z,32.52
2023-04-02T00:54:00.458Z,32.63
2023-04-02T00:56:45.677Z,32.86
2023-04-02T00:59:18.206Z,32.37
2023-04-02T01:01:45.664Z,32.31
2023-04-02T01:04:29.546Z,32.47
2023-04-02T01:06:56.692Z,32.54
2023-04-02T01:09:44.570Z,32.65
2023-04-02T01:12:34.336Z,32.30
2023-04-02T01:15:09.948Z,32.51
2023-04-02T01:17:36.486Z,32.09
2023-04-02T01:20:35.081Z,32.33
2023-04-02T01:23:31.352Z,32.57
2023-04-02T01:26:13.962Z,32.57
2023-04-02T01:29:05.371Z,32.03
2023-04-02T01:31:34.694Z,32.14
2023-04-02T01:34:05.956Z,32.27
2023-04-02T01:36:33.280Z,32.05
2023-04-02T01:39:12.298Z,32.79
2023-04-02T01:41:51.506Z,33.18
2023-04-02T01:44:28.459Z,33.18
2023-04-02T01:46:58.757Z,32.01
2023-04-02T01:49:25.905Z,33.35
2023-04-02T01:51:56.800Z,33.65
2023-04-02T01:54:25.959Z,33.63
2023-04-02T01:56:52.811Z,35.81
2023-04-02T01:59:22.500Z,34.58
2023-04-02T02:02:01.510Z,33.64
2023-04-02T02:04:29.681Z,33.32
2023-04-02T02:06:58.675Z,33.06
2023-04-02T02:09:28.918Z,33.59
2023-04-02T02:11:57.673Z,33.68
2023-04-02T02:14:29.304Z,32.80
2023-04-02T02:17:02.025Z,32.44
2023-04-02T02:19:57.150Z,32.53
2023-04-02T02:22:39.971Z,33.27
2023-04-02T02:25:22.169Z,33.04
2023-04-02T02:28:01.141Z,32.50
2023-04-02T02:30:41.912Z,32.90
2023-04-02T02:33:21.670Z,31.96
2023-04-02T02:35:49.889Z,31.74
2023-04-02T02:38:55.616Z,32.36
2023-04-02T02:41:34.084Z,31.87
2023-04-02T02:44:06.642Z,32.13
2023-04-02T02:46:35.293Z,32.47
2023-04-02T02:49:06.212Z,32.34
2023-04-02T02:51:47.311Z,32.60
2023-04-02T02:54:19.809Z,32.84
2023-04-02T02:56:54.019Z,32.87
2023-04-02T02:59:22.222Z,32.74
2023-04-02T03:01:48.946Z,32.76
2023-04-02T03:04:22.633Z,32.70
2023-04-02T03:06:56.295Z,32.99
2023-04-02T03:09:33.357Z,33.16
2023-04-02T03:12:08.666Z,33.35
2023-04-02T03:14:41.889Z,33.88
2023-04-02T03:17:24.309Z,33.78
2023-04-02T03:20:25.323Z,31.41
2023-04-02T03:22:58.303Z,31.45
2023-04-02T03:25:48.314Z,31.07
2023-04-02T03:28:27.276Z,29.79
2023-04-02T03:31:08.921Z,29.23
2023-04-02T03:33:40.839Z,29.75
2023-04-02T03:36:19.436Z,29.47
2023-04-02T03:39:17.690Z,29.48
2023-04-02T03:41:53.288Z,29.87
2023-04-02T03:44:29.959Z,30.07
2023-04-02T03:47:05.013Z,30.04
2023-04-02T03:49:40.694Z,30.41
2023-04-02T03:52:36.068Z,29.84
2023-04-02T03:55:15.935Z,29.34
2023-04-02T03:57:54.157Z,29.42
2023-04-02T04:00:26.478Z,29.77
2023-04-02T04:03:03.169Z,30.04
2023-04-02T04:05:37.883Z,30.29
2023-04-02T04:08:18.734Z,30.08
2023-04-02T04:10:50.753Z,30.61
2023-04-02T04:13:24.936Z,30.87
2023-04-02T04:15:57.701Z,31.09
2023-04-02T04:18:52.572Z,31.55
2023-04-02T04:21:37.753Z,32.30
2023-04-02T04:24:23.866Z,32.28
2023-04-02T04:27:10.100Z,32.92
2023-04-02T04:29:46.774Z,33.09
2023-04-02T04:32:50.073Z,34.60
2023-04-02T04:35:27.636Z,35.02
2023-04-02T04:38:12.144Z,35.67
2023-04-02T04:40:53.898Z,35.87
2023-04-02T04:43:47.928Z,36.10
2023-04-02T04:46:25.562Z,36.55
2023-04-02T04:48:53.269Z,36.63
2023-04-02T04:51:25.569Z,36.89
2023-04-02T04:53:55.759Z,37.13
2023-04-02T04:56:29.372Z,37.35
2023-04-02T04:59:15.803Z,37.37
2023-04-02T05:01:53.780Z,37.50
2023-04-02T05:04:28.089Z,37.59
2023-04-02T05:07:12.120Z,37.49
2023-04-02T05:09:45.397Z,37.89
2023-04-02T05:12:27.032Z,38.61
2023-04-02T05:14:57.175Z,38.29
2023-04-02T05:17:33.462Z,38.63
2023-04-02T05:20:10.888Z,38.59
2023-04-02T05:22:52.887Z,39.08
2023-04-02T05:25:26.226Z,39.20
2023-04-02T05:28:11.362Z,38.96
2023-04-02T05:30:54.588Z,39.19
2023-04-02T05:33:28.583Z,39.33
2023-04-02T05:36:11.690Z,39.58
2023-04-02T05:38:49.506Z,39.85
2023-04-02T05:41:38.422Z,39.84
2023-04-02T05:44:08.613Z,39.76
2023-04-02T05:46:41.494Z,39.78
2023-04-02T05:49:20.163Z,39.24
2023-04-02T05:51:52.570Z,39.27
2023-04-02T05:54:29.111Z,39.75
2023-04-02T05:57:07.480Z,39.91
2023-04-02T05:59:41.344Z,39.03
2023-04-02T06:02:27.029Z,38.76
2023-04-02T06:05:02.096Z,38.97
2023-04-02T06:07:54.012Z,39.17
2023-04-02T06:10:25.843Z,38.80
2023-04-02T06:13:03.319Z,39.35
2023-04-02T06:15:35.406Z,38.55
2023-04-02T06:18:17.277Z,38.57
2023-04-02T06:20:44.370Z,38.59
2023-04-02T06:23:16.977Z,38.41
2023-04-02T06:26:13.691Z,38.05
2023-04-02T06:28:49.013Z,38.75
2023-04-02T06:31:44.975Z,38.51
2023-04-02T06:34:17.289Z,38.26
2023-04-02T06:36:54.692Z,38.33
2023-04-02T06:39:25.163Z,38.42
2023-04-02T06:42:10.822Z,38.05
2023-04-02T06:44:56.786Z,37.95
2023-04-02T06:47:44.340Z,38.00
2023-04-02T06:50:23.296Z,37.80
2023-04-02T06:52:53.871Z,37.53
2023-04-02T06:55:27.494Z,37.65
2023-04-02T06:57:54.896Z,37.70
2023-04-02T07:00:30.731Z,38.05
2023-04-02T07:03:01.837Z,37.38
2023-04-02T07:05:28.559Z,37.24
2023-04-02T07:07:55.714Z,37.41
2023-04-02T07:10:22.553Z,37.40
2023-04-02T07:12:49.427Z,37.19
2023-04-02T07:15:19.284Z,36.78
2023-04-02T07:17:46.960Z,36.01
2023-04-02T07:20:30.378Z,35.94
2023-04-02T07:23:00.725Z,35.22
2023-04-02T07:25:27.583Z,34.31
2023-04-02T07:27:55.379Z,33.39
2023-04-02T07:30:22.024Z,33.33
2023-04-02T07:32:49.309Z,31.62
2023-04-02T07:35:16.156Z,31.19
2023-04-02T07:37:42.727Z,30.29
2023-04-02T07:40:18.291Z,28.91
2023-04-02T07:42:45.344Z,27.22
2023-04-02T07:45:12.952Z,26.83
2023-04-02T07:47:40.042Z,26.18
2023-04-02T07:50:08.284Z,25.59
2023-04-02T07:52:40.428Z,25.21
2023-04-02T07:55:08.179Z,24.63
2023-04-02T07:57:46.370Z,24.33
2023-04-02T08:00:14.482Z,23.57
2023-04-02T08:02:41.682Z,23.67
2023-04-02T08:05:08.901Z,23.33
2023-04-02T08:07:35.605Z,22.77
2023-04-02T08:10:03.631Z,22.55
2023-04-02T08:12:30.165Z,21.81
2023-04-02T08:14:56.756Z,21.35
2023-04-02T08:17:23.620Z,21.47
2023-04-02T08:19:55.195Z,21.43
2023-04-02T08:22:22.015Z,21.12
2023-04-02T08:24:48.569Z,20.90
2023-04-02T08:27:15.365Z,19.77
2023-04-02T08:29:41.985Z,19.78
2023-04-02T08:32:12.728Z,18.98
2023-04-02T08:34:39.398Z,18.87
2023-04-02T08:37:05.981Z,18.99
2023-04-02T08:39:34.230Z,18.45
2023-04-02T08:42:25.146Z,18.16
2023-04-02T08:45:17.109Z,18.27
2023-04-02T08:47:53.485Z,18.93
2023-04-02T08:50:34.844Z,18.79
2023-04-02T08:53:14.692Z,18.66
2023-04-02T08:56:24.043Z,18.58
2023-04-02T08:58:54.085Z,17.96
2023-04-02T09:01:47.219Z,17.84
2023-04-02T09:04:18.866Z,16.59
2023-04-02T09:06:47.100Z,15.79
2023-04-02T09:09:15.299Z,16.37
2023-04-02T09:11:53.745Z,16.80
2023-04-02T09:14:28.825Z,17.09
2023-04-02T09:17:02.047Z,16.90
2023-04-02T09:19:37.496Z,15.94
2023-04-02T09:22:17.393Z,15.03
2023-04-02T09:24:44.096Z,14.11
2023-04-02T09:27:18.745Z,14.52
2023-04-02T09:29:51.844Z,14.26
2023-04-02T09:32:23.059Z,13.74
2023-04-02T09:34:49.732Z,13.83
2023-04-02T09:37:19.469Z,14.05
2023-04-02T09:39:46.208Z,13.57
2023-04-02T09:42:35.085Z,13.61
2023-04-02T09:45:21.759Z,12.41
2023-04-02T09:47:50.473Z,12.12
2023-04-02T09:50:39.070Z,12.55
2023-04-02T09:53:27.824Z,12.68
2023-04-02T09:56:15.573Z,12.28
2023-04-02T09:58:44.477Z,12.01
2023-04-02T10:01:31.041Z,11.31
2023-04-02T10:03:59.682Z,11.71
2023-04-02T10:06:29.193Z,11.25
2023-04-02T10:08:56.148Z,11.17
2023-04-02T10:11:22.971Z,11.41
2023-04-02T10:14:01.083Z,11.50
2023-04-02T10:16:43.693Z,10.67
2023-04-02T10:19:25.078Z,9.93
2023-04-02T10:21:53.981Z,10.74
2023-04-02T10:24:20.713Z,11.08
2023-04-02T10:27:26.180Z,10.08
2023-04-02T10:30:17.854Z,9.23
2023-04-02T10:33:02.599Z,9.88
2023-04-02T10:35:32.436Z,10.67
2023-04-02T10:38:19.705Z,9.94
2023-04-02T10:41:03.426Z,10.57
2023-04-02T10:43:39.143Z,10.22
2023-04-02T10:46:24.475Z,10.85
2023-04-02T10:48:57.242Z,10.74
2023-04-02T10:51:47.967Z,10.49
2023-04-02T10:54:37.947Z,11.22
2023-04-02T10:57:35.650Z,11.64
2023-04-02T11:00:09.442Z,10.97
2023-04-02T11:02:39.298Z,10.79
2023-04-02T11:05:19.196Z,9.39
2023-04-02T11:07:54.661Z,9.71
2023-04-02T11:10:22.282Z,9.23
2023-04-02T11:13:01.517Z,9.14
2023-04-02T11:15:29.803Z,8.78
2023-04-02T11:17:56.491Z,8.24
2023-04-02T11:20:43.222Z,9.11
2023-04-02T11:23:12.784Z,8.91
2023-04-02T11:25:42.349Z,8.69
2023-04-02T11:28:25.033Z,8.99
2023-04-02T11:30:52.041Z,7.94
2023-04-02T11:33:44.053Z,7.37
2023-04-02T11:36:49.681Z,8.29
2023-04-02T11:39:53.376Z,7.81
2023-04-02T11:42:25.058Z,7.73
2023-04-02T11:44:56.094Z,7.64
2023-04-02T11:47:30.006Z,7.34
2023-04-02T11:49:57.862Z,6.64
2023-04-02T11:52:35.993Z,7.61
2023-04-02T11:55:29.262Z,6.84
2023-04-02T11:58:11.259Z,7.22
2023-04-02T12:01:18.173Z,6.62
2023-04-02T12:04:01.370Z,6.20
2023-04-02T12:06:54.891Z,6.59
2023-04-02T12:09:26.731Z,5.87
2023-04-02T12:11:59.677Z,5.90
2023-04-02T12:14:41.494Z,6.89
2023-04-02T12:17:26.973Z,6.65
2023-04-02T12:19:59.135Z,6.17
2023-04-02T12:22:29.105Z,6.03
2023-04-02T12:25:00.394Z,5.76
2023-04-02T12:27:29.696Z,6.01
2023-04-02T12:30:12.398Z,5.44
2023-04-02T12:32:39.045Z,5.52
2023-04-02T12:35:06.386Z,6.16
2023-04-02T12:37:33.030Z,5.93
2023-04-02T12:40:01.574Z,5.43
2023-04-02T12:42:32.363Z,4.79
2023-04-02T12:44:59.478Z,5.10
2023-04-02T12:47:26.754Z,5.45
2023-04-02T12:49:55.362Z,5.72
2023-04-02T12:52:28.439Z,5.61
2023-04-02T12:55:00.850Z,5.23
2023-04-02T12:57:27.456Z,4.79
2023-04-02T13:00:15.696Z,5.41
2023-04-02T13:02:47.268Z,4.75
2023-04-02T13:05:31.402Z,4.32
2023-04-02T13:07:58.057Z,5.06
2023-04-02T13:10:27.296Z,5.60
2023-04-02T13:13:03.174Z,5.11
2023-04-02T13:15:33.055Z,5.52
2023-04-02T13:18:05.187Z,5.15
2023-04-02T13:20:39.215Z,4.77
2023-04-02T13:23:31.429Z,5.52
2023-04-02T13:26:08.614Z,5.37
2023-04-02T13:28:35.365Z,4.59
2023-04-02T13:31:01.986Z,5.14
2023-04-02T13:33:28.624Z,4.85
2023-04-02T13:35:55.339Z,5.11
2023-04-02T13:38:22.306Z,5.41
2023-04-02T13:40:48.995Z,5.24
2023-04-02T13:43:20.582Z,5.18
2023-04-02T13:45:53.153Z,4.93
2023-04-02T13:48:19.927Z,4.95
2023-04-02T13:50:46.821Z,4.39
2023-04-02T13:53:22.633Z,4.85
2023-04-02T13:55:49.340Z,4.41
2023-04-02T13:58:15.980Z,4.64
2023-04-02T14:00:42.858Z,4.56
2023-04-02T14:03:18.505Z,4.36
2023-04-02T14:06:01.266Z,4.49
2023-04-02T14:08:46.752Z,5.13
2023-04-02T14:11:31.897Z,4.30
2023-04-02T14:14:04.535Z,4.55
2023-04-02T14:17:07.900Z,4.37
2023-04-02T14:20:06.601Z,5.16
2023-04-02T14:22:45.451Z,4.75
2023-04-02T14:25:39.098Z,4.74
2023-04-02T14:28:23.596Z,5.39
2023-04-02T14:31:09.703Z,4.76
2023-04-02T14:33:52.169Z,4.77
2023-04-02T14:36:51.862Z,5.45
2023-04-02T14:39:45.776Z,5.22
2023-04-02T14:42:17.149Z,5.04
2023-04-02T14:44:56.043Z,5.27
2023-04-02T14:47:29.487Z,5.58
2023-04-02T14:50:02.926Z,5.08
2023-04-02T14:52:33.437Z,5.00
2023-04-02T14:55:07.225Z,4.48
2023-04-02T14:57:41.036Z,5.48
2023-04-02T15:00:26.123Z,5.69
2023-04-02T15:03:05.851Z,5.91
2023-04-02T15:05:46.579Z,5.51
2023-04-02T15:08:37.477Z,5.84
2023-04-02T15:11:26.046Z,5.64
2023-04-02T15:14:00.308Z,5.04
2023-04-02T15:16:27.693Z,4.64
2023-04-02T15:18:59.146Z,5.88
2023-04-02T15:22:06.962Z,6.02
2023-04-02T15:24:35.570Z,6.10
2023-04-02T15:27:25.407Z,6.40
2023-04-02T15:30:10.982Z,6.45
2023-04-02T15:32:42.766Z,6.42
2023-04-02T15:35:37.290Z,6.40
2023-04-02T15:38:26.446Z,5.90
2023-04-02T15:41:15.403Z,6.21
2023-04-02T15:43:48.234Z,6.36
2023-04-02T15:46:43.129Z,6.74
2023-04-02T15:49:21.796Z,6.23
2023-04-02T15:52:08.387Z,7.36
2023-04-02T15:54:52.153Z,6.90
2023-04-02T15:57:27.969Z,7.70
2023-04-02T16:00:04.171Z,7.82
2023-04-02T16:03:17.288Z,7.05
2023-04-02T16:05:56.163Z,7.45
2023-04-02T16:08:57.038Z,8.32
2023-04-02T16:11:25.791Z,8.47
2023-04-02T16:14:01.028Z,8.10
2023-04-02T16:16:34.231Z,9.98
2023-04-02T16:19:16.026Z,9.95
2023-04-02T16:22:08.028Z,10.27
2023-04-02T16:24:34.653Z,10.57
2023-04-02T16:27:26.424Z,10.45
2023-04-02T16:30:10.897Z,11.70
2023-04-02T16:33:06.977Z,12.46
2023-04-02T16:36:01.358Z,13.19
2023-04-02T16:38:33.952Z,13.33
2023-04-02T16:41:21.855Z,13.82
2023-04-02T16:44:28.327Z,13.95
2023-04-02T16:47:04.340Z,16.08
2023-04-02T16:49:43.593Z,16.65
2023-04-02T16:52:29.129Z,17.69
2023-04-02T16:55:25.903Z,18.31
2023-04-02T16:58:14.111Z,19.29
2023-04-02T17:01:11.708Z,22.27
2023-04-02T17:04:00.718Z,21.25
2023-04-02T17:07:05.822Z,19.44
2023-04-02T17:09:53.723Z,19.38
2023-04-02T17:12:21.900Z,18.74
2023-04-02T17:14:54.717Z,19.94
2023-04-02T17:17:23.506Z,19.85
2023-04-02T17:19:58.662Z,20.59
2023-04-02T17:22:25.669Z,20.00
2023-04-02T17:25:04.292Z,19.33
2023-04-02T17:27:39.365Z,19.99
2023-04-02T17:30:25.720Z,19.83
2023-04-02T17:32:52.868Z,19.55
2023-04-02T17:35:54.976Z,19.93
2023-04-02T17:38:39.948Z,20.52
2023-04-02T17:41:38.887Z,20.24
2023-04-02T17:44:39.768Z,20.44
2023-04-02T17:47:21.074Z,20.57
2023-04-02T17:50:16.879Z,20.72
2023-04-02T17:53:04.055Z,20.92
2023-04-02T17:56:08.277Z,20.98
2023-04-02T17:58:44.025Z,21.10
2023-04-02T18:01:15.442Z,21.29
2023-04-02T18:03:56.554Z,21.15
2023-04-02T18:06:29.360Z,21.80
2023-04-02T18:09:34.809Z,22.32
2023-04-02T18:12:18.476Z,22.59
2023-04-02T18:15:09.643Z,23.15
2023-04-02T18:17:58.476Z,23.42
2023-04-02T18:20:31.215Z,23.44
2023-04-02T18:23:28.499Z,23.80
2023-04-02T18:26:07.221Z,23.99
2023-04-02T18:28:41.552Z,24.06
2023-04-02T18:31:22.082Z,24.59
2023-04-02T18:33:54.752Z,25.46
2023-04-02T18:37:01.074Z,24.75
2023-04-02T18:39:45.705Z,25.41
2023-04-02T18:42:40.111Z,24.81
2023-04-02T18:45:30.823Z,25.58
2023-04-02T18:48:12.446Z,27.28
2023-04-02T18:50:40.742Z,28.69
2023-04-02T18:53:17.105Z,29.55
2023-04-02T18:55:56.240Z,28.64
2023-04-02T18:58:39.202Z,28.65
2023-04-02T19:01:09.784Z,28.64
2023-04-02T19:03:45.465Z,28.65
2023-04-02T19:06:29.506Z,27.15
2023-04-02T19:09:03.100Z,26.50
2023-04-02T19:11:31.102Z,26.41
2023-04-02T19:14:02.744Z,26.28
2023-04-02T19:16:43.038Z,26.49
2023-04-02T19:19:19.101Z,26.63
2023-04-02T19:21:51.621Z,26.43
2023-04-02T19:24:46.263Z,26.64
2023-04-02T19:27:28.237Z,26.95
2023-04-02T19:29:54.769Z,27.36
2023-04-02T19:32:47.088Z,27.16
2023-04-02T19:35:28.611Z,27.49
2023-04-02T19:38:14.149Z,27.32
2023-04-02T19:40:53.676Z,27.53
2023-04-02T19:43:20.602Z,27.66
2023-04-02T19:45:49.279Z,27.67
2023-04-02T19:48:18.556Z,27.66
2023-04-02T19:50:46.415Z,27.46
2023-04-02T19:53:14.029Z,27.98
2023-04-02T19:55:44.701Z,27.90
2023-04-02T19:58:35.812Z,28.24
2023-04-02T20:01:03.127Z,28.34
2023-04-02T20:03:30.768Z,27.86
2023-04-02T20:05:59.651Z,28.15
2023-04-02T20:08:27.666Z,27.76
2023-04-02T20:10:55.517Z,27.63
2023-04-02T20:13:22.392Z,27.72
2023-04-02T20:15:49.710Z,29.45
2023-04-02T20:18:16.499Z,29.24
2023-04-02T20:20:49.011Z,29.04
2023-04-02T20:23:16.922Z,29.09
2023-04-02T20:25:48.488Z,29.53
2023-04-02T20:28:15.138Z,29.59
2023-04-02T20:30:42.018Z,29.40
2023-04-02T20:33:09.052Z,30.32
2023-04-02T20:35:37.550Z,30.70
2023-04-02T20:38:06.645Z,30.91
2023-04-02T20:40:33.447Z,30.88
2023-04-02T20:43:00.234Z,31.02
2023-04-02T20:45:29.198Z,30.72
2023-04-02T20:47:55.888Z,31.47
2023-04-02T20:50:22.437Z,31.62
2023-04-02T20:52:49.023Z,32.03
2023-04-02T20:55:15.981Z,32.32
2023-04-02T20:57:42.624Z,32.05
2023-04-02T21:00:10.204Z,32.54
2023-04-02T21:02:36.827Z,32.67
2023-04-02T21:05:04.006Z,32.61
2023-04-02T21:07:30.951Z,32.97
2023-04-02T21:09:57.549Z,32.87
2023-04-02T21:12:25.094Z,32.96
2023-04-02T21:14:57.090Z,34.66
2023-04-02T21:17:24.323Z,33.39
2023-04-02T21:19:50.855Z,32.70
2023-04-02T21:22:17.533Z,32.97
2023-04-02T21:24:44.192Z,32.90
2023-04-02T21:27:11.088Z,32.93
2023-04-02T21:29:38.090Z,32.93
2023-04-02T21:32:14.506Z,32.66
2023-04-02T21:34:47.921Z,33.29
2023-04-02T21:37:14.586Z,31.30
2023-04-02T21:39:41.487Z,31.73
2023-04-02T21:42:08.162Z,30.45
2023-04-02T21:44:34.685Z,30.00
2023-04-02T21:47:01.236Z,30.00
2023-04-02T21:49:27.950Z,29.67
2023-04-02T21:51:54.567Z,30.24
2023-04-02T21:54:21.352Z,29.71
2023-04-02T21:56:48.686Z,30.27
2023-04-02T21:59:16.904Z,29.97
2023-04-02T22:01:46.399Z,29.15
2023-04-02T22:04:18.681Z,29.77
2023-04-02T22:06:46.226Z,32.15
2023-04-02T22:09:18.536Z,32.35
2023-04-02T22:11:47.910Z,32.69
2023-04-02T22:14:15.276Z,32.85
2023-04-02T22:16:42.401Z,32.63
2023-04-02T22:19:13.075Z,32.85
2023-04-02T22:21:40.671Z,33.15
2023-04-02T22:24:11.558Z,33.25
2023-04-02T22:26:40.155Z,32.73
2023-04-02T22:29:07.022Z,33.33
2023-04-02T22:31:35.066Z,33.02
2023-04-02T22:34:02.852Z,33.79
2023-04-02T22:36:30.263Z,34.23
2023-04-02T22:38:58.197Z,33.95
2023-04-02T22:41:29.666Z,34.35
2023-04-02T22:43:57.364Z,34.54
2023-04-02T22:46:25.779Z,34.84
2023-04-02T22:48:53.205Z,35.56
2023-04-02T22:51:21.796Z,35.22
2023-04-02T22:53:48.748Z,35.78
2023-04-02T22:56:18.075Z,36.82
2023-04-02T22:58:45.097Z,36.91
2023-04-02T23:01:17.450Z,38.23
2023-04-02T23:03:44.341Z,38.42
2023-04-02T23:06:13.720Z,38.27
2023-04-02T23:08:40.813Z,39.03
2023-04-02T23:11:15.403Z,39.24
2023-04-02T23:13:44.107Z,39.50
2023-04-02T23:16:12.957Z,40.16
2023-04-02T23:18:41.154Z,40.38
2023-04-02T23:21:07.958Z,39.86
2023-04-02T23:23:35.313Z,40.61
2023-04-02T23:26:22.490Z,40.67
2023-04-02T23:28:49.741Z,41.27
2023-04-02T23:31:21.243Z,41.37
2023-04-02T23:33:48.206Z,41.20
2023-04-02T23:36:24.772Z,41.33
2023-04-02T23:38:56.396Z,41.10
2023-04-02T23:41:26.454Z,40.20
2023-04-02T23:43:54.245Z,39.59
2023-04-02T23:46:21.048Z,39.38
2023-04-02T23:48:50.432Z,39.57
2023-04-02T23:51:17.481Z,38.47
2023-04-02T23:53:45.227Z,38.58
2023-04-02T23:56:12.279Z,38.56
2023-04-02T23:58:39.026Z,40.35
